PAAQ METAR and TAF weather

Enter ICAO airport designator
Station Type Date Time Source
PAAQ METAR 2020/07/12 18:53 UTC NOAA

PAAQ 121853Z 35003KT 10SM FEW020 BKN080 OVC100 16/11 A2981 RMK AO2 RAB21E48 SLP097 P0000 T01560106 $


Station Type Date Time Source
PAAQ Decoded METAR 2020/07/12 18:53 UTC NOAA

PALMER MUNICIPAL AIRPORT, AK, United States (PAAQ) 61-36N 149-06W
Jul 12, 2020 - 02:53 PM EDT / 2020.07.12 1853 UTC
Wind: from the N (350 degrees) at 3 MPH (3 KT):0
Visibility: 10 mile(s):0
Sky conditions: overcast
Precipitation last hour: A trace
Temperature: 60.1 F (15.6 C)
Dew Point: 51.1 F (10.6 C)
Relative Humidity: 72%
Pressure (altimeter): 29.81 in. Hg (1009 hPa)
ob: PAAQ 121853Z 35003KT 10SM FEW020 BKN080 OVC100 16/11 A2981 RMK AO2 RAB21E48 SLP097 P0000 T01560106
cycle: 19

Station Type Date Time Source
PAAQ TAF 2020/07/12 18:42 UTC NOAA

TAF PAAQ 121739Z 1218/1318 VRB06KT P6SM VCSH BKN060
FM122100 15008G12KT P6SM VCSH SCT030 BKN060
FM130300 15010KT P6SM OVC050

Example: see airport list